createdAt,value
2019-05-21T00:00:08.017Z,13.64
2019-05-21T00:02:36.429Z,13.67
2019-05-21T00:05:06.980Z,13.59
2019-05-21T00:07:35.407Z,13.52
2019-05-21T00:10:07.714Z,13.54
2019-05-21T00:12:36.139Z,13.67
2019-05-21T00:15:05.020Z,13.68
2019-05-21T00:17:33.435Z,13.63
2019-05-21T00:20:01.865Z,13.61
2019-05-21T00:22:30.310Z,13.43
2019-05-21T00:24:58.774Z,13.41
2019-05-21T00:27:27.199Z,13.32
2019-05-21T00:30:32.043Z,13.23
2019-05-21T00:33:36.772Z,13.21
2019-05-21T00:36:43.134Z,13.14
2019-05-21T00:39:47.547Z,13.21
2019-05-21T00:42:30.688Z,13.15
2019-05-21T00:44:59.151Z,13.11
2019-05-21T00:47:27.597Z,13.06
2019-05-21T00:49:56.091Z,13.09
2019-05-21T00:52:24.530Z,13.09
2019-05-21T00:54:52.997Z,13.10
2019-05-21T00:57:21.438Z,13.13
2019-05-21T00:59:49.883Z,13.05
2019-05-21T01:02:18.298Z,13.08
2019-05-21T01:04:59.685Z,13.08
2019-05-21T01:07:16.893Z,13.08
2019-05-21T01:09:45.390Z,13.17
2019-05-21T01:14:53.980Z,13.10
2019-05-21T01:17:22.379Z,13.02
2019-05-21T01:19:50.858Z,13.00
2019-05-21T01:22:19.283Z,12.94
2019-05-21T01:24:47.733Z,13.00
2019-05-21T01:27:16.176Z,12.98
2019-05-21T01:29:44.615Z,12.94
2019-05-21T01:32:13.013Z,12.88
2019-05-21T01:34:41.455Z,12.87
2019-05-21T01:37:09.863Z,12.81
2019-05-21T01:39:38.308Z,12.77
2019-05-21T01:42:06.753Z,12.80
2019-05-21T01:44:35.158Z,12.71
2019-05-21T01:47:03.597Z,12.73
2019-05-21T01:49:32.036Z,12.63
2019-05-21T01:52:00.422Z,12.62
2019-05-21T01:54:28.861Z,12.59
2019-05-21T01:56:57.288Z,12.66
2019-05-21T01:59:25.715Z,12.50
2019-05-21T02:01:54.270Z,12.45
2019-05-21T02:04:22.687Z,12.31
2019-05-21T02:06:51.274Z,12.31
2019-05-21T02:09:19.674Z,12.19
2019-05-21T02:11:48.100Z,12.25
2019-05-21T02:14:16.530Z,12.24
2019-05-21T02:16:44.956Z,12.20
2019-05-21T02:19:13.357Z,12.14
2019-05-21T02:21:41.792Z,12.14
2019-05-21T02:24:10.209Z,12.17
2019-05-21T02:26:38.619Z,12.23
2019-05-21T02:29:07.088Z,12.18
2019-05-21T02:31:35.525Z,12.21
2019-05-21T02:34:04.012Z,12.12
2019-05-21T02:36:32.486Z,12.14
2019-05-21T02:39:00.921Z,12.21
2019-05-21T02:41:29.416Z,12.31
2019-05-21T02:43:57.821Z,12.12
2019-05-21T02:46:26.229Z,12.18
2019-05-21T02:48:54.657Z,12.25
2019-05-21T02:51:23.122Z,12.15
2019-05-21T02:53:51.519Z,12.12
2019-05-21T02:56:20.082Z,12.12
2019-05-21T02:58:48.500Z,12.10
2019-05-21T03:01:24.453Z,12.20
2019-05-21T03:03:52.949Z,12.12
2019-05-21T03:06:21.378Z,12.12
2019-05-21T03:08:49.808Z,12.17
2019-05-21T03:11:18.464Z,12.19
2019-05-21T03:13:46.903Z,12.10
2019-05-21T03:16:15.359Z,12.09
2019-05-21T03:18:43.778Z,12.09
2019-05-21T03:21:12.206Z,12.11
2019-05-21T03:23:40.626Z,12.08
2019-05-21T03:26:09.036Z,12.13
2019-05-21T03:28:37.450Z,12.12
2019-05-21T03:31:05.955Z,12.03
2019-05-21T03:33:34.362Z,12.10
2019-05-21T03:36:02.768Z,12.04
2019-05-21T03:38:31.172Z,12.07
2019-05-21T03:40:59.610Z,12.06
2019-05-21T03:43:28.010Z,12.04
2019-05-21T03:45:56.460Z,12.09
2019-05-21T03:48:24.860Z,12.11
2019-05-21T03:50:53.279Z,12.02
2019-05-21T03:53:21.735Z,11.98
2019-05-21T03:55:50.217Z,11.93
2019-05-21T03:58:18.633Z,12.06
2019-05-21T04:00:47.024Z,11.94
2019-05-21T04:03:15.444Z,12.01
2019-05-21T04:05:43.884Z,12.02
2019-05-21T04:08:12.306Z,12.07
2019-05-21T04:10:40.722Z,12.07
2019-05-21T04:13:09.622Z,11.96
2019-05-21T04:15:44.239Z,12.04
2019-05-21T04:18:25.984Z,11.94
2019-05-21T04:20:54.672Z,11.91
2019-05-21T04:23:23.071Z,11.97
2019-05-21T04:25:51.507Z,12.10
2019-05-21T04:28:19.930Z,12.11
2019-05-21T04:30:48.324Z,12.07
2019-05-21T04:33:16.765Z,12.10
2019-05-21T04:35:45.196Z,12.06
2019-05-21T04:38:13.583Z,12.07
2019-05-21T04:40:42.035Z,12.14
2019-05-21T04:43:10.431Z,12.10
2019-05-21T04:45:38.842Z,12.10
2019-05-21T04:48:07.256Z,12.08
2019-05-21T04:50:35.700Z,12.04
2019-05-21T04:53:04.134Z,12.17
2019-05-21T04:55:32.563Z,12.15
2019-05-21T04:58:00.979Z,12.03
2019-05-21T05:00:29.407Z,12.21
2019-05-21T05:02:57.830Z,12.21
2019-05-21T05:05:26.243Z,12.30
2019-05-21T05:07:54.696Z,12.21
2019-05-21T05:10:23.103Z,12.24
2019-05-21T05:12:51.529Z,12.28
2019-05-21T05:15:19.944Z,12.31
2019-05-21T05:17:48.377Z,12.24
2019-05-21T05:20:17.640Z,12.34
2019-05-21T05:22:46.056Z,12.39
2019-05-21T05:25:14.626Z,12.34
2019-05-21T05:27:43.038Z,12.38
2019-05-21T05:30:11.781Z,12.33
2019-05-21T05:32:40.279Z,12.39
2019-05-21T05:35:09.071Z,12.39
2019-05-21T05:37:43.901Z,12.47
2019-05-21T05:40:08.853Z,12.41
2019-05-21T05:42:37.309Z,12.42
2019-05-21T05:45:07.732Z,12.40
2019-05-21T05:47:36.257Z,12.54
2019-05-21T05:50:08.820Z,12.54
2019-05-21T05:52:37.251Z,12.49
2019-05-21T05:55:09.706Z,12.51
2019-05-21T05:57:38.132Z,12.44
2019-05-21T06:00:09.662Z,12.53
2019-05-21T06:02:38.086Z,12.55
2019-05-21T06:05:07.060Z,12.60
2019-05-21T06:07:35.453Z,12.47
2019-05-21T06:10:05.307Z,12.45
2019-05-21T06:12:33.903Z,12.46
2019-05-21T06:15:03.010Z,12.51
2019-05-21T06:17:31.728Z,12.52
2019-05-21T06:20:00.181Z,12.56
2019-05-21T06:22:28.600Z,12.57
2019-05-21T06:24:57.043Z,12.56
2019-05-21T06:27:25.450Z,12.55
2019-05-21T06:29:53.892Z,12.63
2019-05-21T06:32:22.336Z,12.63
2019-05-21T06:34:50.728Z,12.67
2019-05-21T06:37:19.208Z,12.66
2019-05-21T06:39:47.699Z,12.72
2019-05-21T06:42:16.109Z,12.76
2019-05-21T06:44:44.513Z,12.82
2019-05-21T06:47:12.930Z,12.65
2019-05-21T06:49:41.347Z,12.82
2019-05-21T06:52:09.830Z,12.84
2019-05-21T06:54:38.292Z,12.76
2019-05-21T06:57:06.708Z,12.76
2019-05-21T06:59:35.109Z,12.81
2019-05-21T07:02:03.550Z,12.79
2019-05-21T07:04:32.037Z,12.89
2019-05-21T07:07:00.447Z,12.75
2019-05-21T07:09:28.887Z,12.83
2019-05-21T07:11:57.315Z,12.84
2019-05-21T07:14:25.761Z,12.90
2019-05-21T07:16:54.150Z,12.85
2019-05-21T07:19:22.635Z,12.83
2019-05-21T07:21:51.038Z,12.81
2019-05-21T07:24:19.593Z,12.86
2019-05-21T07:26:48.016Z,12.81
2019-05-21T07:29:16.508Z,12.82
2019-05-21T07:31:44.935Z,12.83
2019-05-21T07:34:13.451Z,12.86
2019-05-21T07:36:41.881Z,12.82
2019-05-21T07:39:10.369Z,12.78
2019-05-21T07:41:38.993Z,12.78
2019-05-21T07:44:07.488Z,12.70
2019-05-21T07:46:39.257Z,12.62
2019-05-21T07:49:06.067Z,12.73
2019-05-21T07:51:34.551Z,12.60
2019-05-21T07:54:02.971Z,12.70
2019-05-21T07:56:31.424Z,12.75
2019-05-21T07:58:59.856Z,12.78
2019-05-21T08:01:28.357Z,12.62
2019-05-21T08:03:56.792Z,12.70
2019-05-21T08:06:25.240Z,12.68
2019-05-21T08:09:11.487Z,12.80
2019-05-21T08:11:23.833Z,12.75
2019-05-21T08:13:52.306Z,12.72
2019-05-21T08:16:20.763Z,12.56
2019-05-21T08:18:50.364Z,12.68
2019-05-21T08:21:19.447Z,12.54
2019-05-21T08:23:48.574Z,12.48
2019-05-21T08:26:17.048Z,12.43
2019-05-21T08:28:45.482Z,12.40
2019-05-21T08:31:13.906Z,12.49
2019-05-21T08:33:42.348Z,12.36
2019-05-21T08:36:10.958Z,12.33
2019-05-21T08:38:39.508Z,12.32
2019-05-21T08:41:07.925Z,12.41
2019-05-21T08:43:36.345Z,12.26
2019-05-21T08:46:05.299Z,12.31
2019-05-21T08:48:33.724Z,12.37
2019-05-21T08:51:02.133Z,12.43
2019-05-21T08:53:30.543Z,12.25
2019-05-21T08:55:58.957Z,12.36
2019-05-21T08:58:27.375Z,12.47
2019-05-21T09:00:55.806Z,12.48
2019-05-21T09:03:24.237Z,12.55
2019-05-21T09:05:52.662Z,12.62
2019-05-21T09:08:21.093Z,12.65
2019-05-21T09:10:49.505Z,12.54
2019-05-21T09:13:18.312Z,12.38
2019-05-21T09:15:46.746Z,12.40
2019-05-21T09:18:15.189Z,12.48
2019-05-21T09:20:43.609Z,12.51
2019-05-21T09:23:12.074Z,12.53
2019-05-21T09:25:40.745Z,12.48
2019-05-21T09:28:09.347Z,12.59
2019-05-21T09:30:37.759Z,12.56
2019-05-21T09:33:06.163Z,12.63
2019-05-21T09:35:34.711Z,12.64
2019-05-21T09:38:03.159Z,12.65
2019-05-21T09:40:32.213Z,12.49
2019-05-21T09:43:00.638Z,12.60
2019-05-21T09:45:29.068Z,12.65
2019-05-21T09:47:57.465Z,12.62
2019-05-21T09:50:25.905Z,12.65
2019-05-21T09:52:54.337Z,12.56
2019-05-21T09:55:22.793Z,12.62
2019-05-21T09:57:58.808Z,12.53
2019-05-21T10:00:36.066Z,12.53
2019-05-21T10:03:15.079Z,12.51
2019-05-21T10:05:43.529Z,12.56
2019-05-21T10:08:11.979Z,12.48
2019-05-21T10:10:40.441Z,12.50
2019-05-21T10:13:08.839Z,12.47
2019-05-21T10:15:37.240Z,12.42
2019-05-21T10:18:05.769Z,12.44
2019-05-21T10:20:34.163Z,12.44
2019-05-21T10:23:02.650Z,12.39
2019-05-21T10:25:31.055Z,12.58
2019-05-21T10:27:59.485Z,12.45
2019-05-21T10:30:27.906Z,12.44
2019-05-21T10:32:56.320Z,12.44
2019-05-21T10:35:24.750Z,12.39
2019-05-21T10:37:55.328Z,12.31
2019-05-21T10:40:23.593Z,12.31
2019-05-21T10:42:52.051Z,12.23
2019-05-21T10:45:20.444Z,12.36
2019-05-21T10:47:48.897Z,12.36
2019-05-21T10:50:17.558Z,12.37
2019-05-21T10:52:45.971Z,12.32
2019-05-21T10:55:16.108Z,12.29
2019-05-21T10:57:44.634Z,12.42
2019-05-21T11:00:22.416Z,12.33
2019-05-21T11:02:50.423Z,12.24
2019-05-21T11:05:20.495Z,12.18
2019-05-21T11:07:48.898Z,12.18
2019-05-21T11:10:17.471Z,12.16
2019-05-21T11:12:45.893Z,12.15
2019-05-21T11:15:14.727Z,12.18
2019-05-21T11:17:58.952Z,12.13
2019-05-21T11:20:13.820Z,12.21
2019-05-21T11:22:42.263Z,12.29
2019-05-21T11:25:10.997Z,12.22
2019-05-21T11:27:39.453Z,12.16
2019-05-21T11:30:09.812Z,12.17
2019-05-21T11:32:38.423Z,12.21
2019-05-21T11:35:11.267Z,12.25
2019-05-21T11:37:40.143Z,12.26
2019-05-21T11:40:10.771Z,12.24
2019-05-21T11:42:39.212Z,12.34
2019-05-21T11:45:09.150Z,12.26
2019-05-21T11:47:37.564Z,12.29
2019-05-21T11:50:08.629Z,12.33
2019-05-21T11:52:37.084Z,12.25
2019-05-21T11:55:05.957Z,12.31
2019-05-21T11:57:34.383Z,12.42
2019-05-21T12:00:03.158Z,12.42
2019-05-21T12:02:31.582Z,12.47
2019-05-21T12:04:59.999Z,12.46
2019-05-21T12:07:28.498Z,12.43
2019-05-21T12:09:56.926Z,12.34
2019-05-21T12:12:25.377Z,12.53
2019-05-21T12:14:53.821Z,12.52
2019-05-21T12:17:22.253Z,12.44
2019-05-21T12:19:50.698Z,12.49
2019-05-21T12:22:19.142Z,12.56
2019-05-21T12:24:47.551Z,12.57
2019-05-21T12:27:15.993Z,12.64
2019-05-21T12:29:44.446Z,12.62
2019-05-21T12:32:12.937Z,12.62
2019-05-21T12:34:41.371Z,12.78
2019-05-21T12:37:09.794Z,12.61
2019-05-21T12:39:38.214Z,12.76
2019-05-21T12:42:06.709Z,12.76
2019-05-21T12:44:35.117Z,12.74
2019-05-21T12:47:03.615Z,12.75
2019-05-21T12:49:32.041Z,12.87
2019-05-21T12:52:00.467Z,12.80
2019-05-21T12:54:28.890Z,12.87
2019-05-21T12:56:57.313Z,12.94
2019-05-21T12:59:25.727Z,12.80
2019-05-21T13:01:54.167Z,12.79
2019-05-21T13:04:22.639Z,12.79
2019-05-21T13:06:51.108Z,12.90
2019-05-21T13:09:32.204Z,12.82
2019-05-21T13:11:49.824Z,12.87
2019-05-21T13:14:19.006Z,12.89
2019-05-21T13:16:47.678Z,12.91
2019-05-21T13:19:16.109Z,12.80
2019-05-21T13:21:44.536Z,12.68
2019-05-21T13:24:13.033Z,12.83
2019-05-21T13:26:41.458Z,12.86
2019-05-21T13:29:09.875Z,12.87
2019-05-21T13:31:38.283Z,12.70
2019-05-21T13:34:06.702Z,12.68
2019-05-21T13:36:35.137Z,12.77
2019-05-21T13:39:05.220Z,12.80
2019-05-21T13:41:34.203Z,12.85
2019-05-21T13:44:02.648Z,12.84
2019-05-21T13:46:31.061Z,12.67
2019-05-21T13:48:59.499Z,12.78
2019-05-21T13:51:27.901Z,12.84
2019-05-21T13:53:56.348Z,12.84
2019-05-21T13:56:24.779Z,12.80
2019-05-21T13:58:53.201Z,12.79
2019-05-21T14:01:38.839Z,12.77
2019-05-21T14:03:51.910Z,12.82
2019-05-21T14:06:20.636Z,12.72
2019-05-21T14:08:49.033Z,12.72
2019-05-21T14:11:17.446Z,12.65
2019-05-21T14:13:46.104Z,12.67
2019-05-21T14:16:14.559Z,12.55
2019-05-21T14:18:43.102Z,12.58
2019-05-21T14:21:11.597Z,12.62
2019-05-21T14:23:40.006Z,12.63
2019-05-21T14:26:08.509Z,12.50
2019-05-21T14:28:36.932Z,12.57
2019-05-21T14:31:05.431Z,12.61
2019-05-21T14:33:33.936Z,12.62
2019-05-21T14:36:02.335Z,12.54
2019-05-21T14:38:30.858Z,12.55
2019-05-21T14:40:59.275Z,12.65
2019-05-21T14:43:27.724Z,12.64
2019-05-21T14:45:56.192Z,12.66
2019-05-21T14:48:24.700Z,12.68
2019-05-21T14:50:53.097Z,12.72
2019-05-21T14:53:21.532Z,12.60
2019-05-21T14:55:49.952Z,12.57
2019-05-21T14:58:18.400Z,12.52
2019-05-21T15:00:46.795Z,12.60
2019-05-21T15:03:24.994Z,12.54
2019-05-21T15:05:45.574Z,12.47
2019-05-21T15:08:14.033Z,12.43
2019-05-21T15:10:48.629Z,12.41
2019-05-21T15:13:12.592Z,12.51
2019-05-21T15:15:41.015Z,12.38
2019-05-21T15:18:09.508Z,12.42
2019-05-21T15:20:39.637Z,12.48
2019-05-21T15:23:08.079Z,12.50
2019-05-21T15:25:36.497Z,12.53
2019-05-21T15:28:05.002Z,12.46
2019-05-21T15:30:33.410Z,12.44
2019-05-21T15:33:01.872Z,12.48
2019-05-21T15:35:30.329Z,12.49
2019-05-21T15:37:58.794Z,12.40
2019-05-21T15:40:27.248Z,12.47
2019-05-21T15:42:55.679Z,12.43
2019-05-21T15:45:24.223Z,12.45
2019-05-21T15:47:52.643Z,12.50
2019-05-21T15:50:21.085Z,12.49
2019-05-21T15:52:49.512Z,12.53
2019-05-21T15:55:17.942Z,12.52
2019-05-21T15:57:46.368Z,12.54
2019-05-21T16:00:16.671Z,12.49
2019-05-21T16:02:45.095Z,12.47
2019-05-21T16:05:13.624Z,12.44
2019-05-21T16:07:42.056Z,12.58
2019-05-21T16:10:10.715Z,12.59
2019-05-21T16:12:39.115Z,12.59
2019-05-21T16:15:08.683Z,12.56
2019-05-21T16:17:37.088Z,12.35
2019-05-21T16:20:09.817Z,12.39
2019-05-21T16:22:38.266Z,12.38
2019-05-21T16:25:09.859Z,12.37
2019-05-21T16:27:38.285Z,12.39
2019-05-21T16:30:07.752Z,12.45
2019-05-21T16:32:36.224Z,12.40
2019-05-21T16:35:09.729Z,12.41
2019-05-21T16:37:38.274Z,12.36
2019-05-21T16:40:08.524Z,12.42
2019-05-21T16:42:36.925Z,12.37
2019-05-21T16:45:07.465Z,12.27
2019-05-21T16:47:45.492Z,12.21
2019-05-21T16:50:07.480Z,12.33
2019-05-21T16:52:35.912Z,12.29
2019-05-21T16:55:06.296Z,12.36
2019-05-21T16:57:34.832Z,12.38
2019-05-21T17:00:05.085Z,12.36
2019-05-21T17:02:33.513Z,12.27
2019-05-21T17:05:02.108Z,12.31
2019-05-21T17:07:30.531Z,12.33
2019-05-21T17:09:58.981Z,12.32
2019-05-21T17:12:27.414Z,12.29
2019-05-21T17:14:55.851Z,12.30
2019-05-21T17:17:24.280Z,12.29
2019-05-21T17:19:52.691Z,12.24
2019-05-21T17:22:21.106Z,12.19
2019-05-21T17:24:49.540Z,12.25
2019-05-21T17:27:17.955Z,12.25
2019-05-21T17:29:46.394Z,12.32
2019-05-21T17:32:14.818Z,12.28
2019-05-21T17:34:43.261Z,12.32
2019-05-21T17:37:12.691Z,12.34
2019-05-21T17:39:41.133Z,12.28
2019-05-21T17:42:15.561Z,12.30
2019-05-21T17:44:39.693Z,12.29
2019-05-21T17:47:08.274Z,12.13
2019-05-21T17:49:36.651Z,12.30
2019-05-21T17:52:05.109Z,12.21
2019-05-21T17:54:33.543Z,12.26
2019-05-21T17:57:01.947Z,12.30
2019-05-21T17:59:30.386Z,12.25
2019-05-21T18:02:00.183Z,12.28
2019-05-21T18:04:29.257Z,12.14
2019-05-21T18:06:58.069Z,12.23
2019-05-21T18:09:26.807Z,12.31
2019-05-21T18:11:55.261Z,12.29
2019-05-21T18:14:24.785Z,12.28
2019-05-21T18:16:53.494Z,12.32
2019-05-21T18:19:22.017Z,12.24
2019-05-21T18:21:50.932Z,12.32
2019-05-21T18:24:19.782Z,12.24
2019-05-21T18:26:48.284Z,12.36
2019-05-21T18:29:16.699Z,12.26
2019-05-21T18:31:46.339Z,12.25
2019-05-21T18:34:15.666Z,12.24
2019-05-21T18:36:44.322Z,12.20
2019-05-21T18:39:12.825Z,12.25
2019-05-21T18:41:41.322Z,12.32
2019-05-21T18:44:09.746Z,12.28
2019-05-21T18:46:38.229Z,12.27
2019-05-21T18:49:06.940Z,12.32
2019-05-21T18:51:35.437Z,12.28
2019-05-21T18:54:04.828Z,12.28
2019-05-21T18:56:33.476Z,12.25
2019-05-21T18:59:02.230Z,12.20
2019-05-21T19:01:31.503Z,12.22
2019-05-21T19:04:00.584Z,12.22
2019-05-21T19:06:31.375Z,12.21
2019-05-21T19:08:59.798Z,12.27
2019-05-21T19:11:28.220Z,12.28
2019-05-21T19:13:57.308Z,12.22
2019-05-21T19:16:29.654Z,12.21
2019-05-21T19:18:55.962Z,12.26
2019-05-21T19:21:24.446Z,12.30
2019-05-21T19:23:52.893Z,12.33
2019-05-21T19:26:21.511Z,12.38
2019-05-21T19:28:50.100Z,12.31
2019-05-21T19:31:18.572Z,12.35
2019-05-21T19:33:47.005Z,12.27
2019-05-21T19:36:15.580Z,12.14
2019-05-21T19:38:44.634Z,12.16
2019-05-21T19:41:13.107Z,12.11
2019-05-21T19:43:41.535Z,12.19
2019-05-21T19:46:10.034Z,12.13
2019-05-21T19:48:39.112Z,12.22
2019-05-21T19:51:07.786Z,12.23
2019-05-21T19:53:36.216Z,12.18
2019-05-21T19:56:05.201Z,12.21
2019-05-21T19:58:33.851Z,12.20
2019-05-21T20:01:05.809Z,12.13
2019-05-21T20:03:34.404Z,12.10
2019-05-21T20:06:03.417Z,12.15
2019-05-21T20:08:32.047Z,12.18
2019-05-21T20:11:00.533Z,12.15
2019-05-21T20:13:32.505Z,12.17
2019-05-21T20:16:01.179Z,12.15
2019-05-21T20:18:29.766Z,12.13
2019-05-21T20:20:59.270Z,12.16
2019-05-21T20:23:27.929Z,12.16
2019-05-21T20:25:57.223Z,12.18
2019-05-21T20:28:26.083Z,12.20
2019-05-21T20:30:55.777Z,12.14
2019-05-21T20:33:24.440Z,12.24
2019-05-21T20:35:53.615Z,12.18
2019-05-21T20:38:23.570Z,12.06
2019-05-21T20:40:53.460Z,12.04
2019-05-21T20:43:21.882Z,11.97
2019-05-21T20:45:51.736Z,11.97
2019-05-21T20:48:22.383Z,12.06
2019-05-21T20:50:50.874Z,12.03
2019-05-21T20:53:19.541Z,12.03
2019-05-21T20:55:48.289Z,11.90
2019-05-21T20:58:17.073Z,11.98
2019-05-21T21:00:49.999Z,11.96
2019-05-21T21:03:18.743Z,11.97
2019-05-21T21:05:47.454Z,11.88
2019-05-21T21:08:15.962Z,11.91
2019-05-21T21:10:44.642Z,11.81
2019-05-21T21:13:14.346Z,11.93
2019-05-21T21:15:43.411Z,11.92
2019-05-21T21:18:12.139Z,12.02
2019-05-21T21:20:40.723Z,11.84
2019-05-21T21:23:10.426Z,11.88
2019-05-21T21:25:38.936Z,11.98
2019-05-21T21:28:07.391Z,11.90
2019-05-21T21:30:37.336Z,11.92
2019-05-21T21:33:07.124Z,11.93
2019-05-21T21:35:36.545Z,11.87
2019-05-21T21:38:06.124Z,11.91
2019-05-21T21:40:35.036Z,11.87
2019-05-21T21:43:03.466Z,11.92
2019-05-21T21:45:32.976Z,11.97
2019-05-21T21:48:01.396Z,12.00
2019-05-21T21:50:29.887Z,11.93
2019-05-21T21:52:59.204Z,11.85
2019-05-21T21:55:27.651Z,11.83
2019-05-21T21:57:56.159Z,11.77
2019-05-21T22:00:55.173Z,11.72
2019-05-21T22:03:26.320Z,11.84
2019-05-21T22:05:55.282Z,11.79
2019-05-21T22:08:23.779Z,11.76
2019-05-21T22:10:52.487Z,11.80
2019-05-21T22:13:21.066Z,11.69
2019-05-21T22:15:49.560Z,11.74
2019-05-21T22:18:18.930Z,11.88
2019-05-21T22:20:47.921Z,11.91
2019-05-21T22:23:17.671Z,11.84
2019-05-21T22:25:46.745Z,11.86
2019-05-21T22:28:15.361Z,11.80
2019-05-21T22:30:43.784Z,11.70
2019-05-21T22:33:12.204Z,11.79
2019-05-21T22:35:41.104Z,11.82
2019-05-21T22:38:09.596Z,11.75
2019-05-21T22:40:38.037Z,11.81
2019-05-21T22:43:06.458Z,11.75
2019-05-21T22:45:34.990Z,11.80
2019-05-21T22:48:03.402Z,11.77
2019-05-21T22:50:32.979Z,11.78
2019-05-21T22:53:02.960Z,11.78
2019-05-21T22:55:32.744Z,11.77
2019-05-21T22:58:02.284Z,11.66
2019-05-21T23:00:33.553Z,11.68
2019-05-21T23:03:03.283Z,11.70
2019-05-21T23:05:33.244Z,11.67
2019-05-21T23:08:03.068Z,11.70
2019-05-21T23:10:32.778Z,11.67
2019-05-21T23:13:02.314Z,11.57
2019-05-21T23:15:31.849Z,11.65
2019-05-21T23:18:01.349Z,11.71
2019-05-21T23:20:32.025Z,11.52
2019-05-21T23:23:01.611Z,11.46
2019-05-21T23:25:30.205Z,11.50
2019-05-21T23:27:59.205Z,11.50
2019-05-21T23:30:27.980Z,11.35
2019-05-21T23:32:56.725Z,11.31
2019-05-21T23:35:25.339Z,11.32
2019-05-21T23:37:56.357Z,11.36
2019-05-21T23:40:26.408Z,11.42
2019-05-21T23:42:55.070Z,11.37
2019-05-21T23:45:23.659Z,11.41
2019-05-21T23:47:52.080Z,11.41
2019-05-21T23:50:21.253Z,11.40
2019-05-21T23:52:50.403Z,11.46
2019-05-21T23:55:18.842Z,11.40
2019-05-21T23:57:47.480Z,11.35
